Terminal Aerodrome Forecast
Issued by NWS

Home | Current Version | Previous Version | Graphics & Text | Print | Product List | Glossary Off
Versions: 1 2 3 4 5 6 7 8 9 10 11 12 13 14 15 16 17 18 19 20 21 22 23 24 25 26

000
FTUS41 KCLE 220500
TAFFDY
TAF
KFDY 220520Z 2206/2306 VRB04KT P6SM BKN015 OVC100
     FM221000 VRB03KT 5SM BR SCT015 BKN025
     FM221200 19003KT 5SM BR VCSH SCT008 OVC025
     FM221500 26005KT P6SM SCT035 BKN100
     FM230400 VRB03KT 4SM BR FEW015 BKN150=

USA.gov is the U.S. government's official web portal to all federal, state and local government web resources and services.